»·PEaware :: N8092H KSBP-KSBA

N8092H :: KSBP-KSBA

FLIGHT INFORMATION

Flight Status: Arrived
Operator: Privately registered:
United States
More flights under this callsign
Pilot: Mark B. (9455)
Aircraft: CESSNA 172 SKYHAWK
(C172)
More flights by this aircraft type
Origin: KSBP San Luis Co Regl
United States
Destination: KSBA Santa Barbara Mun
United States
More flights between these airports :: More routes between these airports
Route: +GVO
File this flight plan on PilotEdge
Remarks:
Altitude:
(Current/Filed)
5,000ft
Speed:
(Current/Filed)
115kts
Departed: 04-Jan-17 05:06 PM
Arrived: 04-Jan-17 06:47 PM
Distance/Time
Traveled:
63nm/1:41
Distance/Time
To Go:
Arrived

Flight Plot

Page will automatically refresh every two minutes.


Map Options




Map Legend


Flown Route
Filed Route
Departure Airport
Arrival Airport
Navaid (VOR, NDB)
Fix

Horizontal Profiles

Position Reports

Time Latitude Longitude Heading Altitude Ground
Speed
04-Jan-17 16:51 35.238070 -120.638659 270 215ft 0kts
04-Jan-17 16:52 35.238070 -120.638659 270 215ft 0kts
04-Jan-17 16:53 35.238070 -120.638659 270 215ft 0kts
04-Jan-17 16:54 35.238070 -120.638659 270 215ft 0kts
04-Jan-17 16:55 35.238070 -120.638659 270 215ft 0kts
04-Jan-17 16:56 35.238070 -120.638659 270 215ft 0kts
04-Jan-17 16:57 35.238070 -120.638659 270 215ft 0kts
04-Jan-17 16:58 35.238070 -120.638659 270 215ft 0kts
04-Jan-17 16:59 35.238070 -120.638659 270 215ft 0kts
04-Jan-17 17:00 35.236220 -120.637184 121 215ft 31kts
04-Jan-17 17:01 35.233347 -120.632249 175 215ft 0kts
04-Jan-17 17:02 35.233347 -120.632249 175 215ft 0kts
04-Jan-17 17:03 35.233347 -120.632249 175 215ft 0kts
04-Jan-17 17:04 35.233299 -120.632274 216 215ft 1kts
04-Jan-17 17:05 35.233290 -120.632283 216 215ft 0kts
04-Jan-17 17:06 35.233702 -120.634620 303 215ft 49kts
04-Jan-17 17:07 35.245538 -120.655047 303 1195ft 78kts
04-Jan-17 17:08 35.257459 -120.676652 302 2289ft 78kts
04-Jan-17 17:09 35.269270 -120.698886 304 3320ft 79kts
04-Jan-17 17:10 35.282531 -120.720577 292 4296ft 80kts
04-Jan-17 17:11 35.266874 -120.722630 142 5012ft 93kts
04-Jan-17 17:12 35.242816 -120.699888 143 4983ft 114kts
04-Jan-17 17:13 35.215895 -120.678891 148 4950ft 115kts
04-Jan-17 17:14 35.190326 -120.658020 146 4976ft 109kts
04-Jan-17 17:15 35.164576 -120.638183 147 5034ft 107kts
04-Jan-17 17:16 35.139024 -120.618325 145 5017ft 111kts
04-Jan-17 17:17 35.113544 -120.596635 142 4959ft 114kts
04-Jan-17 17:18 35.088860 -120.573638 143 4970ft 111kts
04-Jan-17 17:19 35.064787 -120.550578 141 4970ft 112kts
04-Jan-17 17:20 35.040210 -120.527897 143 4997ft 110kts
04-Jan-17 17:21 35.015946 -120.505313 139 5036ft 109kts
04-Jan-17 17:22 34.991375 -120.482749 144 5029ft 110kts
04-Jan-17 17:23 34.965189 -120.460601 145 5039ft 115kts
04-Jan-17 17:24 34.938650 -120.437021 142 5007ft 119kts
04-Jan-17 17:25 34.911747 -120.413264 146 4990ft 118kts
04-Jan-17 17:26 34.883902 -120.392220 145 5008ft 117kts
04-Jan-17 17:27 34.857330 -120.368132 141 4981ft 118kts
04-Jan-17 17:28 34.830212 -120.345918 146 5012ft 119kts
04-Jan-17 17:29 34.802840 -120.322859 145 5025ft 117kts
04-Jan-17 17:30 34.775113 -120.300321 145 4970ft 120kts
04-Jan-17 17:31 34.747288 -120.278029 147 4976ft 119kts
04-Jan-17 17:32 34.720312 -120.255681 141 4949ft 124kts
04-Jan-17 17:33 34.693328 -120.232797 147 5038ft 119kts
04-Jan-17 17:34 34.665645 -120.210608 143 5027ft 120kts
04-Jan-17 17:35 34.639211 -120.185489 136 4995ft 119kts
04-Jan-17 17:36 34.612204 -120.163941 179 4892ft 123kts
04-Jan-17 17:37 34.577201 -120.166085 183 4020ft 128kts
04-Jan-17 17:38 34.545424 -120.167441 182 4012ft 109kts
04-Jan-17 17:39 34.514662 -120.168891 183 4037ft 113kts
04-Jan-17 17:40 34.482985 -120.170906 181 4032ft 109kts
04-Jan-17 17:41 34.451747 -120.172247 184 4046ft 109kts
04-Jan-17 17:42 34.423662 -120.163606 115 3991ft 115kts
04-Jan-17 17:43 34.417667 -120.127086 84 3969ft 116kts
04-Jan-17 17:44 34.420360 -120.090118 85 3702ft 106kts
04-Jan-17 17:45 34.423515 -120.056969 86 3006ft 97kts
04-Jan-17 17:46 34.423685 -120.025738 89 2825ft 92kts
04-Jan-17 17:47 34.423596 -120.003792 92 2589ft 93kts
04-Jan-17 17:48 34.424171 -119.982507 80 2298ft 89kts
04-Jan-17 17:49 34.424835 -119.951791 89 1702ft 92kts
04-Jan-17 17:50 34.426078 -119.920714 88 1092ft 92kts
04-Jan-17 17:51 34.426879 -119.890446 83 613ft 91kts
04-Jan-17 17:52 34.427431 -119.859727 88 537ft 87kts
04-Jan-17 17:53 34.425762 -119.831782 128 1662ft 89kts
04-Jan-17 17:54 34.405672 -119.819035 175 2811ft 81kts
04-Jan-17 17:55 34.382661 -119.822752 193 3796ft 85kts
04-Jan-17 17:56 34.357645 -119.832344 197 4035ft 92kts
04-Jan-17 17:57 34.333055 -119.842651 200 3994ft 92kts
04-Jan-17 17:58 34.308911 -119.852050 197 4018ft 89kts
04-Jan-17 17:59 34.295232 -119.857973 198 3997ft 91kts
04-Jan-17 18:00 34.280900 -119.862183 167 4000ft 91kts
04-Jan-17 18:01 34.260734 -119.844281 141 4020ft 89kts
04-Jan-17 18:02 34.269529 -119.830235 316 4007ft 89kts
04-Jan-17 18:03 34.274681 -119.858664 323 3939ft 96kts
04-Jan-17 18:04 34.294312 -119.860204 76 4033ft 87kts
04-Jan-17 18:05 34.279506 -119.838272 141 4018ft 89kts
04-Jan-17 18:06 34.260523 -119.837012 267 4005ft 89kts
04-Jan-17 18:07 34.276319 -119.859120 319 4011ft 89kts
04-Jan-17 18:08 34.294062 -119.858701 91 4069ft 83kts
04-Jan-17 18:09 34.291623 -119.850347 120 4036ft 87kts
04-Jan-17 18:10 34.291623 -119.850347 120 4036ft 87kts
04-Jan-17 18:11 34.291623 -119.850347 120 4036ft 87kts
04-Jan-17 18:12 34.291623 -119.850347 120 4036ft 87kts
04-Jan-17 18:13 34.291623 -119.850347 120 4036ft 87kts
04-Jan-17 18:14 34.291623 -119.850347 120 4036ft 87kts
04-Jan-17 18:15 34.291623 -119.850347 120 4036ft 87kts
04-Jan-17 18:16 34.291623 -119.850347 120 4036ft 87kts
04-Jan-17 18:17 34.291623 -119.850347 120 4036ft 87kts
04-Jan-17 18:18 34.291623 -119.850347 120 4036ft 87kts
04-Jan-17 18:19 34.291623 -119.850347 120 4036ft 87kts
04-Jan-17 18:20 34.291623 -119.850347 120 4036ft 87kts
04-Jan-17 18:21 34.273691 -119.829315 136 3980ft 93kts
04-Jan-17 18:22 34.253822 -119.810718 157 3986ft 93kts
04-Jan-17 18:23 34.250244 -119.829945 316 4005ft 89kts
04-Jan-17 18:24 34.268286 -119.850893 320 3970ft 94kts
04-Jan-17 18:25 34.285997 -119.871839 295 4011ft 89kts
04-Jan-17 18:26 34.296527 -119.899140 296 4059ft 85kts
04-Jan-17 18:27 34.307348 -119.926543 295 4010ft 91kts
04-Jan-17 18:28 34.317907 -119.954460 294 4015ft 90kts
04-Jan-17 18:29 34.328044 -119.982475 294 3995ft 93kts
04-Jan-17 18:30 34.338127 -120.010574 292 4007ft 91kts
04-Jan-17 18:31 34.348086 -120.038887 293 4002ft 91kts
04-Jan-17 18:32 34.358283 -120.066782 293 4030ft 88kts
04-Jan-17 18:33 34.368041 -120.096623 292 3985ft 102kts
04-Jan-17 18:34 34.379380 -120.126803 291 3992ft 96kts
04-Jan-17 18:35 34.390682 -120.155971 296 3991ft 95kts
04-Jan-17 18:36 34.408185 -120.148300 71 3954ft 98kts
04-Jan-17 18:37 34.415689 -120.117684 69 4002ft 93kts
04-Jan-17 18:38 34.421752 -120.087153 87 3827ft 95kts
04-Jan-17 18:39 34.422857 -120.055772 87 3232ft 94kts
04-Jan-17 18:40 34.423886 -120.024561 86 2687ft 92kts
04-Jan-17 18:41 34.424753 -119.993649 90 2270ft 91kts
04-Jan-17 18:42 34.425460 -119.962924 88 1843ft 91kts
04-Jan-17 18:43 34.425919 -119.932428 88 1351ft 89kts
04-Jan-17 18:44 34.426533 -119.902121 88 825ft 91kts
04-Jan-17 18:45 34.427202 -119.872033 90 335ft 88kts
04-Jan-17 18:46 34.427402 -119.846706 89 17ft 42kts
04-Jan-17 18:47 34.428371 -119.841968 343 17ft 0kts
04-Jan-17 18:48 34.429528 -119.842098 48 17ft 16kts
04-Jan-17 18:49 34.431603 -119.836181 59 17ft 22kts
04-Jan-17 18:50 34.432544 -119.834542 152 17ft 0kts
04-Jan-17 18:51 34.432544 -119.834542 152 17ft 0kts
04-Jan-17 18:52 34.432544 -119.834542 152 17ft 0kts
04-Jan-17 18:53 34.432544 -119.834542 152 17ft 0kts
04-Jan-17 18:54 34.432544 -119.834542 152 17ft 0kts
04-Jan-17 18:55 34.432544 -119.834542 152 17ft 0kts
04-Jan-17 18:56 34.432544 -119.834542 152 17ft 0kts
04-Jan-17 18:57 34.432544 -119.834542 152 17ft 0kts
04-Jan-17 18:58 34.432544 -119.834542 152 17ft 0kts
04-Jan-17 18:59 34.432544 -119.834542 152 17ft 0kts
04-Jan-17 19:00 34.432544 -119.834542 152 17ft 0kts
04-Jan-17 19:01 34.432544 -119.834542 152 17ft 0kts
04-Jan-17 19:02 34.432544 -119.834542 152 17ft 0kts

Navigation Log

Ident Type
Flight plan parsing failed, navigation log unavailable